sensor_id;sensor_type;location;lat;lon;timestamp;P1;durP1;ratioP1;P2;durP2;ratioP2
19127;SDS011;9696;53.686;10.094;2023-04-24T00:01:47;3.60;;;2.87;;
19127;SDS011;9696;53.686;10.094;2023-04-24T00:04:17;3.70;;;2.57;;
19127;SDS011;9696;53.686;10.094;2023-04-24T00:06:47;5.30;;;2.63;;
19127;SDS011;9696;53.686;10.094;2023-04-24T00:09:21;3.77;;;2.90;;
19127;SDS011;9696;53.686;10.094;2023-04-24T00:11:58;5.07;;;2.87;;
19127;SDS011;9696;53.686;10.094;2023-04-24T00:14:30;4.43;;;3.20;;
19127;SDS011;9696;53.686;10.094;2023-04-24T00:17:02;3.83;;;2.60;;
19127;SDS011;9696;53.686;10.094;2023-04-24T00:19:32;4.23;;;3.13;;
19127;SDS011;9696;53.686;10.094;2023-04-24T00:22:01;4.20;;;3.00;;
19127;SDS011;9696;53.686;10.094;2023-04-24T00:24:31;5.73;;;4.00;;
19127;SDS011;9696;53.686;10.094;2023-04-24T00:27:01;6.43;;;3.63;;
19127;SDS011;9696;53.686;10.094;2023-04-24T00:29:32;7.30;;;3.63;;
19127;SDS011;9696;53.686;10.094;2023-04-24T00:32:02;4.73;;;3.20;;
19127;SDS011;9696;53.686;10.094;2023-04-24T00:34:32;6.50;;;3.50;;
19127;SDS011;9696;53.686;10.094;2023-04-24T00:37:03;5.80;;;3.10;;
19127;SDS011;9696;53.686;10.094;2023-04-24T00:39:32;8.23;;;3.73;;
19127;SDS011;9696;53.686;10.094;2023-04-24T00:42:02;6.93;;;3.70;;
19127;SDS011;9696;53.686;10.094;2023-04-24T00:44:34;4.63;;;3.50;;
19127;SDS011;9696;53.686;10.094;2023-04-24T00:47:04;4.80;;;3.70;;
19127;SDS011;9696;53.686;10.094;2023-04-24T00:49:35;5.47;;;4.07;;
19127;SDS011;9696;53.686;10.094;2023-04-24T00:52:04;7.63;;;3.83;;
19127;SDS011;9696;53.686;10.094;2023-04-24T00:54:36;6.07;;;3.57;;
19127;SDS011;9696;53.686;10.094;2023-04-24T00:57:05;5.97;;;3.80;;
19127;SDS011;9696;53.686;10.094;2023-04-24T00:59:36;6.10;;;4.00;;
19127;SDS011;9696;53.686;10.094;2023-04-24T01:02:08;6.63;;;3.60;;
19127;SDS011;9696;53.686;10.094;2023-04-24T01:04:42;8.40;;;4.17;;
19127;SDS011;9696;53.686;10.094;2023-04-24T01:07:14;6.23;;;4.67;;
19127;SDS011;9696;53.686;10.094;2023-04-24T01:09:44;6.63;;;4.10;;
19127;SDS011;9696;53.686;10.094;2023-04-24T01:12:18;6.43;;;4.37;;
19127;SDS011;9696;53.686;10.094;2023-04-24T01:14:49;9.17;;;4.40;;
19127;SDS011;9696;53.686;10.094;2023-04-24T01:17:21;6.43;;;4.47;;
19127;SDS011;9696;53.686;10.094;2023-04-24T01:22:35;6.90;;;4.73;;
19127;SDS011;9696;53.686;10.094;2023-04-24T01:25:04;5.90;;;4.07;;
19127;SDS011;9696;53.686;10.094;2023-04-24T01:27:35;7.33;;;5.00;;
19127;SDS011;9696;53.686;10.094;2023-04-24T01:30:06;5.87;;;4.17;;
19127;SDS011;9696;53.686;10.094;2023-04-24T01:32:37;6.50;;;4.20;;
19127;SDS011;9696;53.686;10.094;2023-04-24T01:35:08;5.77;;;4.43;;
19127;SDS011;9696;53.686;10.094;2023-04-24T01:37:41;4.67;;;3.60;;
19127;SDS011;9696;53.686;10.094;2023-04-24T01:40:10;4.97;;;3.93;;
19127;SDS011;9696;53.686;10.094;2023-04-24T01:42:40;5.30;;;4.00;;
19127;SDS011;9696;53.686;10.094;2023-04-24T01:45:11;5.43;;;3.97;;
19127;SDS011;9696;53.686;10.094;2023-04-24T01:47:40;5.23;;;4.07;;
19127;SDS011;9696;53.686;10.094;2023-04-24T01:50:11;7.50;;;4.70;;
19127;SDS011;9696;53.686;10.094;2023-04-24T01:52:42;11.00;;;4.27;;
19127;SDS011;9696;53.686;10.094;2023-04-24T01:55:12;5.53;;;4.20;;
19127;SDS011;9696;53.686;10.094;2023-04-24T01:57:43;5.60;;;3.47;;
19127;SDS011;9696;53.686;10.094;2023-04-24T02:00:14;7.03;;;4.20;;
19127;SDS011;9696;53.686;10.094;2023-04-24T02:02:44;5.93;;;3.90;;
19127;SDS011;9696;53.686;10.094;2023-04-24T02:05:17;5.47;;;3.93;;
19127;SDS011;9696;53.686;10.094;2023-04-24T02:07:48;5.00;;;3.17;;
19127;SDS011;9696;53.686;10.094;2023-04-24T02:10:17;6.70;;;3.03;;
19127;SDS011;9696;53.686;10.094;2023-04-24T02:12:47;4.83;;;3.23;;
19127;SDS011;9696;53.686;10.094;2023-04-24T02:15:18;3.93;;;2.70;;
19127;SDS011;9696;53.686;10.094;2023-04-24T02:17:49;3.60;;;2.97;;
19127;SDS011;9696;53.686;10.094;2023-04-24T02:20:18;6.67;;;3.20;;
19127;SDS011;9696;53.686;10.094;2023-04-24T02:22:50;5.73;;;3.03;;
19127;SDS011;9696;53.686;10.094;2023-04-24T02:25:20;3.87;;;2.63;;
19127;SDS011;9696;53.686;10.094;2023-04-24T02:27:50;4.90;;;2.50;;
19127;SDS011;9696;53.686;10.094;2023-04-24T02:30:22;5.53;;;2.57;;
19127;SDS011;9696;53.686;10.094;2023-04-24T02:32:52;3.27;;;2.30;;
19127;SDS011;9696;53.686;10.094;2023-04-24T02:35:22;2.47;;;1.80;;
19127;SDS011;9696;53.686;10.094;2023-04-24T02:37:57;2.50;;;1.67;;
19127;SDS011;9696;53.686;10.094;2023-04-24T02:40:28;2.70;;;2.00;;
19127;SDS011;9696;53.686;10.094;2023-04-24T02:45:31;2.80;;;2.10;;
19127;SDS011;9696;53.686;10.094;2023-04-24T02:48:02;4.97;;;2.30;;
19127;SDS011;9696;53.686;10.094;2023-04-24T02:50:32;3.80;;;2.33;;
19127;SDS011;9696;53.686;10.094;2023-04-24T02:53:03;2.73;;;2.23;;
19127;SDS011;9696;53.686;10.094;2023-04-24T02:55:33;5.10;;;2.00;;
19127;SDS011;9696;53.686;10.094;2023-04-24T02:58:07;2.97;;;2.23;;
19127;SDS011;9696;53.686;10.094;2023-04-24T03:00:41;5.37;;;2.43;;
19127;SDS011;9696;53.686;10.094;2023-04-24T03:03:11;2.80;;;2.27;;
19127;SDS011;9696;53.686;10.094;2023-04-24T03:05:41;3.03;;;2.20;;
19127;SDS011;9696;53.686;10.094;2023-04-24T03:08:15;4.27;;;2.23;;
19127;SDS011;9696;53.686;10.094;2023-04-24T03:10:45;8.77;;;2.00;;
19127;SDS011;9696;53.686;10.094;2023-04-24T03:13:15;5.03;;;2.33;;
19127;SDS011;9696;53.686;10.094;2023-04-24T03:15:44;2.93;;;2.23;;
19127;SDS011;9696;53.686;10.094;2023-04-24T03:18:14;5.10;;;2.20;;
19127;SDS011;9696;53.686;10.094;2023-04-24T03:20:45;3.13;;;1.83;;
19127;SDS011;9696;53.686;10.094;2023-04-24T03:23:16;4.13;;;2.10;;
19127;SDS011;9696;53.686;10.094;2023-04-24T03:25:45;2.67;;;1.80;;
19127;SDS011;9696;53.686;10.094;2023-04-24T03:28:17;3.87;;;2.40;;
19127;SDS011;9696;53.686;10.094;2023-04-24T03:30:53;2.43;;;1.90;;
19127;SDS011;9696;53.686;10.094;2023-04-24T03:33:24;2.20;;;1.80;;
19127;SDS011;9696;53.686;10.094;2023-04-24T03:36:04;1.90;;;1.60;;
19127;SDS011;9696;53.686;10.094;2023-04-24T03:38:39;5.47;;;2.10;;
19127;SDS011;9696;53.686;10.094;2023-04-24T03:41:21;2.17;;;1.90;;
19127;SDS011;9696;53.686;10.094;2023-04-24T03:43:58;2.20;;;1.50;;
19127;SDS011;9696;53.686;10.094;2023-04-24T03:46:30;3.03;;;2.10;;
19127;SDS011;9696;53.686;10.094;2023-04-24T03:49:03;1.83;;;1.57;;
19127;SDS011;9696;53.686;10.094;2023-04-24T03:51:36;2.63;;;1.60;;
19127;SDS011;9696;53.686;10.094;2023-04-24T03:54:15;1.73;;;1.57;;
19127;SDS011;9696;53.686;10.094;2023-04-24T03:56:45;2.60;;;1.83;;
19127;SDS011;9696;53.686;10.094;2023-04-24T03:59:16;2.10;;;1.30;;
19127;SDS011;9696;53.686;10.094;2023-04-24T04:01:53;9.00;;;1.73;;
19127;SDS011;9696;53.686;10.094;2023-04-24T04:04:22;2.30;;;1.50;;
19127;SDS011;9696;53.686;10.094;2023-04-24T04:06:52;4.93;;;1.47;;
19127;SDS011;9696;53.686;10.094;2023-04-24T04:09:25;1.77;;;1.40;;
19127;SDS011;9696;53.686;10.094;2023-04-24T04:11:57;1.77;;;1.53;;
19127;SDS011;9696;53.686;10.094;2023-04-24T04:14:29;3.57;;;1.70;;
19127;SDS011;9696;53.686;10.094;2023-04-24T04:16:59;1.30;;;1.20;;
19127;SDS011;9696;53.686;10.094;2023-04-24T04:19:31;1.67;;;1.30;;
19127;SDS011;9696;53.686;10.094;2023-04-24T04:22:00;1.33;;;1.23;;
19127;SDS011;9696;53.686;10.094;2023-04-24T04:24:45;1.67;;;1.57;;
19127;SDS011;9696;53.686;10.094;2023-04-24T04:27:15;5.40;;;1.57;;
19127;SDS011;9696;53.686;10.094;2023-04-24T04:29:53;2.90;;;1.57;;
19127;SDS011;9696;53.686;10.094;2023-04-24T04:32:23;1.50;;;1.40;;
19127;SDS011;9696;53.686;10.094;2023-04-24T04:34:53;1.77;;;1.57;;
19127;SDS011;9696;53.686;10.094;2023-04-24T04:37:26;2.17;;;1.30;;
19127;SDS011;9696;53.686;10.094;2023-04-24T04:40:15;1.87;;;1.17;;
19127;SDS011;9696;53.686;10.094;2023-04-24T04:42:51;1.23;;;1.13;;
19127;SDS011;9696;53.686;10.094;2023-04-24T04:45:21;2.13;;;1.20;;
19127;SDS011;9696;53.686;10.094;2023-04-24T04:48:12;2.30;;;1.33;;
19127;SDS011;9696;53.686;10.094;2023-04-24T04:50:45;1.20;;;1.10;;
19127;SDS011;9696;53.686;10.094;2023-04-24T04:53:15;1.97;;;1.00;;
19127;SDS011;9696;53.686;10.094;2023-04-24T04:55:46;1.50;;;1.23;;
19127;SDS011;9696;53.686;10.094;2023-04-24T04:58:18;1.50;;;1.20;;
19127;SDS011;9696;53.686;10.094;2023-04-24T05:00:51;1.17;;;0.80;;
19127;SDS011;9696;53.686;10.094;2023-04-24T05:03:28;1.63;;;1.10;;
19127;SDS011;9696;53.686;10.094;2023-04-24T05:06:08;0.90;;;0.80;;
19127;SDS011;9696;53.686;10.094;2023-04-24T05:08:38;2.00;;;0.90;;
19127;SDS011;9696;53.686;10.094;2023-04-24T05:11:23;1.47;;;1.10;;
19127;SDS011;9696;53.686;10.094;2023-04-24T05:13:57;1.17;;;1.07;;
19127;SDS011;9696;53.686;10.094;2023-04-24T05:16:35;2.00;;;0.70;;
19127;SDS011;9696;53.686;10.094;2023-04-24T05:19:06;1.97;;;0.70;;
19127;SDS011;9696;53.686;10.094;2023-04-24T05:21:40;0.87;;;0.70;;
19127;SDS011;9696;53.686;10.094;2023-04-24T05:24:13;0.60;;;0.60;;
19127;SDS011;9696;53.686;10.094;2023-04-24T05:27:06;1.30;;;0.80;;
19127;SDS011;9696;53.686;10.094;2023-04-24T05:29:40;0.97;;;0.80;;
19127;SDS011;9696;53.686;10.094;2023-04-24T05:32:17;1.30;;;0.90;;
19127;SDS011;9696;53.686;10.094;2023-04-24T05:34:47;1.53;;;0.93;;
19127;SDS011;9696;53.686;10.094;2023-04-24T05:37:19;4.93;;;1.30;;
19127;SDS011;9696;53.686;10.094;2023-04-24T05:39:48;0.70;;;0.70;;
19127;SDS011;9696;53.686;10.094;2023-04-24T05:42:20;2.10;;;0.90;;
19127;SDS011;9696;53.686;10.094;2023-04-24T05:44:55;0.60;;;0.60;;
19127;SDS011;9696;53.686;10.094;2023-04-24T05:47:26;2.10;;;0.70;;
19127;SDS011;9696;53.686;10.094;2023-04-24T05:49:56;0.53;;;0.40;;
19127;SDS011;9696;53.686;10.094;2023-04-24T05:52:27;1.43;;;0.57;;
19127;SDS011;9696;53.686;10.094;2023-04-24T05:55:04;1.40;;;0.40;;
19127;SDS011;9696;53.686;10.094;2023-04-24T05:57:38;0.60;;;0.60;;
19127;SDS011;9696;53.686;10.094;2023-04-24T06:00:09;0.50;;;0.50;;
19127;SDS011;9696;53.686;10.094;2023-04-24T06:02:45;2.97;;;0.60;;
19127;SDS011;9696;53.686;10.094;2023-04-24T06:05:16;1.10;;;0.63;;
19127;SDS011;9696;53.686;10.094;2023-04-24T06:07:46;0.60;;;0.60;;
19127;SDS011;9696;53.686;10.094;2023-04-24T06:10:20;2.50;;;0.50;;
19127;SDS011;9696;53.686;10.094;2023-04-24T06:12:52;1.08;;;0.52;;
19127;SDS011;9696;53.686;10.094;2023-04-24T06:15:23;0.90;;;0.55;;
19127;SDS011;9696;53.686;10.094;2023-04-24T06:17:57;0.80;;;0.70;;
19127;SDS011;9696;53.686;10.094;2023-04-24T06:20:27;1.55;;;0.80;;
19127;SDS011;9696;53.686;10.094;2023-04-24T06:22:56;2.15;;;0.70;;
19127;SDS011;9696;53.686;10.094;2023-04-24T06:25:26;1.25;;;0.70;;
19127;SDS011;9696;53.686;10.094;2023-04-24T06:27:59;0.60;;;0.60;;
19127;SDS011;9696;53.686;10.094;2023-04-24T06:30:30;1.65;;;0.60;;
19127;SDS011;9696;53.686;10.094;2023-04-24T06:33:00;0.50;;;0.50;;
19127;SDS011;9696;53.686;10.094;2023-04-24T06:35:46;0.98;;;0.50;;
19127;SDS011;9696;53.686;10.094;2023-04-24T06:38:16;0.68;;;0.57;;
19127;SDS011;9696;53.686;10.094;2023-04-24T06:40:45;0.50;;;0.50;;
19127;SDS011;9696;53.686;10.094;2023-04-24T06:43:17;0.60;;;0.60;;
19127;SDS011;9696;53.686;10.094;2023-04-24T06:45:48;0.88;;;0.70;;
19127;SDS011;9696;53.686;10.094;2023-04-24T06:48:17;1.02;;;0.70;;
19127;SDS011;9696;53.686;10.094;2023-04-24T06:50:47;1.92;;;0.80;;
19127;SDS011;9696;53.686;10.094;2023-04-24T06:53:16;2.45;;;0.63;;
19127;SDS011;9696;53.686;10.094;2023-04-24T06:55:47;0.93;;;0.68;;
19127;SDS011;9696;53.686;10.094;2023-04-24T06:58:18;0.75;;;0.70;;
19127;SDS011;9696;53.686;10.094;2023-04-24T07:00:48;0.60;;;0.60;;
19127;SDS011;9696;53.686;10.094;2023-04-24T07:03:17;3.40;;;0.88;;
19127;SDS011;9696;53.686;10.094;2023-04-24T07:05:47;2.75;;;0.88;;
19127;SDS011;9696;53.686;10.094;2023-04-24T07:08:18;1.65;;;0.60;;
19127;SDS011;9696;53.686;10.094;2023-04-24T07:10:49;0.60;;;0.60;;
19127;SDS011;9696;53.686;10.094;2023-04-24T07:13:20;1.02;;;0.70;;
19127;SDS011;9696;53.686;10.094;2023-04-24T07:15:50;0.70;;;0.55;;
19127;SDS011;9696;53.686;10.094;2023-04-24T07:18:21;1.65;;;0.75;;
19127;SDS011;9696;53.686;10.094;2023-04-24T07:20:51;2.88;;;0.70;;
19127;SDS011;9696;53.686;10.094;2023-04-24T07:23:20;1.67;;;0.82;;
19127;SDS011;9696;53.686;10.094;2023-04-24T07:25:50;1.48;;;0.70;;
19127;SDS011;9696;53.686;10.094;2023-04-24T07:28:21;4.18;;;1.05;;
19127;SDS011;9696;53.686;10.094;2023-04-24T07:30:51;2.55;;;0.95;;
19127;SDS011;9696;53.686;10.094;2023-04-24T07:33:21;6.13;;;1.10;;
19127;SDS011;9696;53.686;10.094;2023-04-24T07:35:53;1.40;;;1.30;;
19127;SDS011;9696;53.686;10.094;2023-04-24T07:38:23;1.10;;;1.00;;
19127;SDS011;9696;53.686;10.094;2023-04-24T07:40:54;2.47;;;1.13;;
19127;SDS011;9696;53.686;10.094;2023-04-24T07:43:27;1.50;;;1.13;;
19127;SDS011;9696;53.686;10.094;2023-04-24T07:45:58;0.90;;;0.85;;
19127;SDS011;9696;53.686;10.094;2023-04-24T07:48:27;1.88;;;1.02;;
19127;SDS011;9696;53.686;10.094;2023-04-24T07:50:57;1.70;;;1.30;;
19127;SDS011;9696;53.686;10.094;2023-04-24T07:53:26;1.77;;;1.40;;
19127;SDS011;9696;53.686;10.094;2023-04-24T07:55:55;1.50;;;1.23;;
19127;SDS011;9696;53.686;10.094;2023-04-24T07:58:24;2.35;;;1.40;;
19127;SDS011;9696;53.686;10.094;2023-04-24T08:00:55;1.60;;;1.35;;
19127;SDS011;9696;53.686;10.094;2023-04-24T08:03:25;1.13;;;1.02;;
19127;SDS011;9696;53.686;10.094;2023-04-24T08:05:55;1.52;;;1.30;;
19127;SDS011;9696;53.686;10.094;2023-04-24T08:08:25;2.00;;;1.58;;
19127;SDS011;9696;53.686;10.094;2023-04-24T08:10:56;3.92;;;1.25;;
19127;SDS011;9696;53.686;10.094;2023-04-24T08:13:28;1.77;;;1.35;;
19127;SDS011;9696;53.686;10.094;2023-04-24T08:15:58;1.83;;;1.63;;
19127;SDS011;9696;53.686;10.094;2023-04-24T08:18:27;1.73;;;1.45;;
19127;SDS011;9696;53.686;10.094;2023-04-24T08:20:57;1.40;;;1.30;;
19127;SDS011;9696;53.686;10.094;2023-04-24T08:23:28;2.65;;;1.45;;
19127;SDS011;9696;53.686;10.094;2023-04-24T08:25:58;2.20;;;1.70;;
19127;SDS011;9696;53.686;10.094;2023-04-24T08:28:30;3.92;;;1.88;;
19127;SDS011;9696;53.686;10.094;2023-04-24T08:31:00;3.97;;;1.90;;
19127;SDS011;9696;53.686;10.094;2023-04-24T08:33:29;2.78;;;1.55;;
19127;SDS011;9696;53.686;10.094;2023-04-24T08:36:02;2.58;;;1.88;;
19127;SDS011;9696;53.686;10.094;2023-04-24T08:38:32;2.28;;;2.00;;
19127;SDS011;9696;53.686;10.094;2023-04-24T08:41:02;3.30;;;1.88;;
19127;SDS011;9696;53.686;10.094;2023-04-24T08:43:34;2.30;;;1.90;;
19127;SDS011;9696;53.686;10.094;2023-04-24T08:46:05;3.53;;;2.42;;
19127;SDS011;9696;53.686;10.094;2023-04-24T08:48:38;6.60;;;1.98;;
19127;SDS011;9696;53.686;10.094;2023-04-24T08:51:10;4.17;;;2.20;;
19127;SDS011;9696;53.686;10.094;2023-04-24T08:53:40;2.58;;;2.22;;
19127;SDS011;9696;53.686;10.094;2023-04-24T08:56:10;5.88;;;2.50;;
19127;SDS011;9696;53.686;10.094;2023-04-24T08:58:43;5.55;;;2.47;;
19127;SDS011;9696;53.686;10.094;2023-04-24T09:01:14;2.90;;;2.17;;
19127;SDS011;9696;53.686;10.094;2023-04-24T09:03:45;2.72;;;1.83;;
19127;SDS011;9696;53.686;10.094;2023-04-24T09:06:18;3.78;;;1.73;;
19127;SDS011;9696;53.686;10.094;2023-04-24T09:08:49;2.90;;;2.10;;
19127;SDS011;9696;53.686;10.094;2023-04-24T09:11:22;4.03;;;2.20;;
19127;SDS011;9696;53.686;10.094;2023-04-24T09:13:55;2.58;;;1.90;;
19127;SDS011;9696;53.686;10.094;2023-04-24T09:16:26;3.17;;;2.33;;
19127;SDS011;9696;53.686;10.094;2023-04-24T09:18:56;2.58;;;1.90;;
19127;SDS011;9696;53.686;10.094;2023-04-24T09:21:30;2.70;;;2.45;;
19127;SDS011;9696;53.686;10.094;2023-04-24T09:24:01;7.68;;;2.00;;
19127;SDS011;9696;53.686;10.094;2023-04-24T09:26:37;3.42;;;2.30;;
19127;SDS011;9696;53.686;10.094;2023-04-24T09:29:13;4.13;;;2.15;;
19127;SDS011;9696;53.686;10.094;2023-04-24T09:31:45;4.00;;;2.63;;
19127;SDS011;9696;53.686;10.094;2023-04-24T09:34:18;4.25;;;2.60;;
19127;SDS011;9696;53.686;10.094;2023-04-24T09:36:50;5.35;;;2.63;;
19127;SDS011;9696;53.686;10.094;2023-04-24T09:39:20;2.90;;;2.30;;
19127;SDS011;9696;53.686;10.094;2023-04-24T09:41:51;2.25;;;2.05;;
19127;SDS011;9696;53.686;10.094;2023-04-24T09:44:25;3.72;;;2.60;;
19127;SDS011;9696;53.686;10.094;2023-04-24T09:46:57;3.03;;;2.40;;
19127;SDS011;9696;53.686;10.094;2023-04-24T09:49:28;2.92;;;2.30;;
19127;SDS011;9696;53.686;10.094;2023-04-24T09:52:03;2.78;;;2.25;;
19127;SDS011;9696;53.686;10.094;2023-04-24T09:54:33;2.28;;;2.08;;
19127;SDS011;9696;53.686;10.094;2023-04-24T09:57:06;3.17;;;2.50;;
19127;SDS011;9696;53.686;10.094;2023-04-24T09:59:39;3.38;;;2.47;;
19127;SDS011;9696;53.686;10.094;2023-04-24T10:02:19;3.42;;;1.90;;
19127;SDS011;9696;53.686;10.094;2023-04-24T10:04:54;2.70;;;2.25;;
19127;SDS011;9696;53.686;10.094;2023-04-24T10:07:27;2.87;;;2.10;;
19127;SDS011;9696;53.686;10.094;2023-04-24T10:09:56;3.42;;;2.40;;
19127;SDS011;9696;53.686;10.094;2023-04-24T10:12:28;2.55;;;2.25;;
19127;SDS011;9696;53.686;10.094;2023-04-24T10:15:00;3.17;;;2.60;;
19127;SDS011;9696;53.686;10.094;2023-04-24T10:17:30;3.33;;;2.22;;
19127;SDS011;9696;53.686;10.094;2023-04-24T10:20:02;3.35;;;2.42;;
19127;SDS011;9696;53.686;10.094;2023-04-24T10:22:34;5.90;;;3.13;;
19127;SDS011;9696;53.686;10.094;2023-04-24T10:25:05;4.63;;;3.10;;
19127;SDS011;9696;53.686;10.094;2023-04-24T10:27:37;3.97;;;2.88;;
19127;SDS011;9696;53.686;10.094;2023-04-24T10:30:10;4.90;;;3.10;;
19127;SDS011;9696;53.686;10.094;2023-04-24T10:32:41;6.77;;;3.37;;
19127;SDS011;9696;53.686;10.094;2023-04-24T10:35:11;4.70;;;3.10;;
19127;SDS011;9696;53.686;10.094;2023-04-24T10:37:44;8.38;;;3.88;;
19127;SDS011;9696;53.686;10.094;2023-04-24T10:40:17;5.57;;;3.43;;
19127;SDS011;9696;53.686;10.094;2023-04-24T10:42:47;5.23;;;3.27;;
19127;SDS011;9696;53.686;10.094;2023-04-24T10:45:23;5.97;;;3.70;;
19127;SDS011;9696;53.686;10.094;2023-04-24T10:47:59;6.53;;;4.00;;
19127;SDS011;9696;53.686;10.094;2023-04-24T10:50:41;6.85;;;3.67;;
19127;SDS011;9696;53.686;10.094;2023-04-24T10:53:13;7.63;;;4.20;;
19127;SDS011;9696;53.686;10.094;2023-04-24T10:55:45;5.43;;;3.53;;
19127;SDS011;9696;53.686;10.094;2023-04-24T10:58:15;6.07;;;3.85;;
19127;SDS011;9696;53.686;10.094;2023-04-24T11:00:55;6.53;;;4.32;;
19127;SDS011;9696;53.686;10.094;2023-04-24T11:03:27;6.00;;;4.15;;
19127;SDS011;9696;53.686;10.094;2023-04-24T11:05:59;7.25;;;4.10;;
19127;SDS011;9696;53.686;10.094;2023-04-24T11:08:30;6.95;;;4.40;;
19127;SDS011;9696;53.686;10.094;2023-04-24T11:11:08;8.48;;;4.43;;
19127;SDS011;9696;53.686;10.094;2023-04-24T11:14:01;9.90;;;4.32;;
19127;SDS011;9696;53.686;10.094;2023-04-24T11:16:35;5.07;;;4.07;;
19127;SDS011;9696;53.686;10.094;2023-04-24T11:19:18;6.40;;;4.30;;
19127;SDS011;9696;53.686;10.094;2023-04-24T11:21:56;8.50;;;4.45;;
19127;SDS011;9696;53.686;10.094;2023-04-24T11:24:29;9.30;;;4.97;;
19127;SDS011;9696;53.686;10.094;2023-04-24T11:27:06;9.60;;;4.78;;
19127;SDS011;9696;53.686;10.094;2023-04-24T11:29:47;9.07;;;4.72;;
19127;SDS011;9696;53.686;10.094;2023-04-24T11:32:23;9.80;;;5.00;;
19127;SDS011;9696;53.686;10.094;2023-04-24T11:34:55;8.07;;;4.88;;
19127;SDS011;9696;53.686;10.094;2023-04-24T11:37:29;6.38;;;4.07;;
19127;SDS011;9696;53.686;10.094;2023-04-24T11:40:04;4.72;;;3.90;;
19127;SDS011;9696;53.686;10.094;2023-04-24T11:42:36;5.45;;;4.03;;
19127;SDS011;9696;53.686;10.094;2023-04-24T11:45:07;8.57;;;4.05;;
19127;SDS011;9696;53.686;10.094;2023-04-24T11:47:39;5.53;;;3.55;;
19127;SDS011;9696;53.686;10.094;2023-04-24T11:50:11;7.25;;;4.15;;
19127;SDS011;9696;53.686;10.094;2023-04-24T11:52:42;5.32;;;3.38;;
19127;SDS011;9696;53.686;10.094;2023-04-24T11:55:23;6.85;;;3.63;;
19127;SDS011;9696;53.686;10.094;2023-04-24T11:57:56;6.07;;;4.13;;
19127;SDS011;9696;53.686;10.094;2023-04-24T12:00:26;5.80;;;3.88;;
19127;SDS011;9696;53.686;10.094;2023-04-24T12:03:06;8.70;;;4.40;;
19127;SDS011;9696;53.686;10.094;2023-04-24T12:05:37;4.68;;;3.22;;
19127;SDS011;9696;53.686;10.094;2023-04-24T12:08:08;8.13;;;3.58;;
19127;SDS011;9696;53.686;10.094;2023-04-24T12:10:42;6.75;;;3.88;;
19127;SDS011;9696;53.686;10.094;2023-04-24T12:13:11;6.43;;;3.85;;
19127;SDS011;9696;53.686;10.094;2023-04-24T12:15:45;6.13;;;3.92;;
19127;SDS011;9696;53.686;10.094;2023-04-24T12:18:16;5.95;;;4.43;;
19127;SDS011;9696;53.686;10.094;2023-04-24T12:20:50;5.63;;;3.92;;
19127;SDS011;9696;53.686;10.094;2023-04-24T12:23:33;6.15;;;3.70;;
19127;SDS011;9696;53.686;10.094;2023-04-24T12:26:03;5.57;;;3.50;;
19127;SDS011;9696;53.686;10.094;2023-04-24T12:28:36;6.95;;;3.15;;
19127;SDS011;9696;53.686;10.094;2023-04-24T12:31:06;3.33;;;2.63;;
19127;SDS011;9696;53.686;10.094;2023-04-24T12:33:37;4.28;;;3.40;;
19127;SDS011;9696;53.686;10.094;2023-04-24T12:36:09;4.68;;;3.33;;
19127;SDS011;9696;53.686;10.094;2023-04-24T12:38:43;3.42;;;2.95;;
19127;SDS011;9696;53.686;10.094;2023-04-24T12:41:14;5.35;;;3.65;;
19127;SDS011;9696;53.686;10.094;2023-04-24T12:43:58;4.00;;;2.83;;
19127;SDS011;9696;53.686;10.094;2023-04-24T12:46:27;4.80;;;2.97;;
19127;SDS011;9696;53.686;10.094;2023-04-24T12:48:59;4.38;;;3.05;;
19127;SDS011;9696;53.686;10.094;2023-04-24T12:51:29;4.13;;;3.00;;
19127;SDS011;9696;53.686;10.094;2023-04-24T12:53:58;5.20;;;2.97;;
19127;SDS011;9696;53.686;10.094;2023-04-24T12:56:27;6.15;;;3.70;;
19127;SDS011;9696;53.686;10.094;2023-04-24T12:58:57;10.43;;;3.65;;
19127;SDS011;9696;53.686;10.094;2023-04-24T13:01:27;7.00;;;3.30;;
19127;SDS011;9696;53.686;10.094;2023-04-24T13:03:56;4.88;;;3.20;;
19127;SDS011;9696;53.686;10.094;2023-04-24T13:06:28;3.42;;;2.70;;
19127;SDS011;9696;53.686;10.094;2023-04-24T13:09:01;3.97;;;2.50;;
19127;SDS011;9696;53.686;10.094;2023-04-24T13:11:30;3.78;;;2.92;;
19127;SDS011;9696;53.686;10.094;2023-04-24T13:14:00;4.15;;;3.08;;
19127;SDS011;9696;53.686;10.094;2023-04-24T13:16:29;4.20;;;2.90;;
19127;SDS011;9696;53.686;10.094;2023-04-24T13:19:02;4.63;;;3.25;;
19127;SDS011;9696;53.686;10.094;2023-04-24T13:21:32;6.10;;;2.70;;
19127;SDS011;9696;53.686;10.094;2023-04-24T13:24:01;4.77;;;3.10;;
19127;SDS011;9696;53.686;10.094;2023-04-24T13:26:31;4.50;;;2.90;;
19127;SDS011;9696;53.686;10.094;2023-04-24T13:29:01;3.87;;;3.07;;
19127;SDS011;9696;53.686;10.094;2023-04-24T13:31:34;5.00;;;3.37;;
19127;SDS011;9696;53.686;10.094;2023-04-24T13:34:05;4.57;;;3.67;;
19127;SDS011;9696;53.686;10.094;2023-04-24T13:36:38;4.87;;;3.50;;
19127;SDS011;9696;53.686;10.094;2023-04-24T13:39:08;5.40;;;3.70;;
19127;SDS011;9696;53.686;10.094;2023-04-24T13:41:38;3.80;;;3.08;;
19127;SDS011;9696;53.686;10.094;2023-04-24T13:44:08;7.45;;;3.35;;
19127;SDS011;9696;53.686;10.094;2023-04-24T13:46:38;4.75;;;2.95;;
19127;SDS011;9696;53.686;10.094;2023-04-24T13:49:09;3.97;;;2.95;;
19127;SDS011;9696;53.686;10.094;2023-04-24T13:51:40;4.20;;;2.60;;
19127;SDS011;9696;53.686;10.094;2023-04-24T13:54:14;3.63;;;2.72;;
19127;SDS011;9696;53.686;10.094;2023-04-24T13:56:45;3.23;;;2.70;;
19127;SDS011;9696;53.686;10.094;2023-04-24T13:59:16;3.50;;;2.37;;
19127;SDS011;9696;53.686;10.094;2023-04-24T14:01:46;4.53;;;2.53;;
19127;SDS011;9696;53.686;10.094;2023-04-24T14:04:17;2.90;;;2.50;;
19127;SDS011;9696;53.686;10.094;2023-04-24T14:06:47;2.70;;;2.40;;
19127;SDS011;9696;53.686;10.094;2023-04-24T14:09:17;2.70;;;2.40;;
19127;SDS011;9696;53.686;10.094;2023-04-24T14:11:47;2.60;;;2.40;;
19127;SDS011;9696;53.686;10.094;2023-04-24T14:14:16;3.17;;;2.47;;
19127;SDS011;9696;53.686;10.094;2023-04-24T14:16:46;3.43;;;2.40;;
19127;SDS011;9696;53.686;10.094;2023-04-24T14:19:15;4.00;;;2.70;;
19127;SDS011;9696;53.686;10.094;2023-04-24T14:21:46;2.73;;;2.47;;
19127;SDS011;9696;53.686;10.094;2023-04-24T14:24:18;3.05;;;2.70;;
19127;SDS011;9696;53.686;10.094;2023-04-24T14:26:48;4.87;;;3.00;;
19127;SDS011;9696;53.686;10.094;2023-04-24T14:29:18;3.30;;;2.72;;
19127;SDS011;9696;53.686;10.094;2023-04-24T14:31:47;3.33;;;2.70;;
19127;SDS011;9696;53.686;10.094;2023-04-24T14:34:19;4.23;;;2.50;;
19127;SDS011;9696;53.686;10.094;2023-04-24T14:36:52;4.37;;;2.67;;
19127;SDS011;9696;53.686;10.094;2023-04-24T14:39:21;3.73;;;2.40;;
19127;SDS011;9696;53.686;10.094;2023-04-24T14:41:51;3.87;;;2.80;;
19127;SDS011;9696;53.686;10.094;2023-04-24T14:44:20;3.33;;;2.60;;
19127;SDS011;9696;53.686;10.094;2023-04-24T14:46:50;4.83;;;3.00;;
19127;SDS011;9696;53.686;10.094;2023-04-24T14:49:24;4.00;;;2.80;;
19127;SDS011;9696;53.686;10.094;2023-04-24T14:51:54;4.53;;;2.90;;
19127;SDS011;9696;53.686;10.094;2023-04-24T14:54:24;5.53;;;3.20;;
19127;SDS011;9696;53.686;10.094;2023-04-24T14:56:54;6.37;;;3.80;;
19127;SDS011;9696;53.686;10.094;2023-04-24T14:59:24;5.30;;;3.70;;
19127;SDS011;9696;53.686;10.094;2023-04-24T15:01:54;5.83;;;3.90;;
19127;SDS011;9696;53.686;10.094;2023-04-24T15:04:43;5.90;;;3.60;;
19127;SDS011;9696;53.686;10.094;2023-04-24T15:07:13;6.77;;;4.20;;
19127;SDS011;9696;53.686;10.094;2023-04-24T15:09:45;5.83;;;3.77;;
19127;SDS011;9696;53.686;10.094;2023-04-24T15:12:15;8.30;;;4.97;;
19127;SDS011;9696;53.686;10.094;2023-04-24T15:14:47;6.73;;;4.90;;
19127;SDS011;9696;53.686;10.094;2023-04-24T15:17:19;6.20;;;4.97;;
19127;SDS011;9696;53.686;10.094;2023-04-24T15:19:51;7.80;;;4.97;;
19127;SDS011;9696;53.686;10.094;2023-04-24T15:22:44;5.27;;;4.00;;